Welcome to Northern Hawkes Bay. New Zealand.
PWS Header
      nz Flag



Hit Counter


W3C Valid W3C Valid logo


    Wairoa

Select any of the Stations below to visit their websites.










Historic Data from Weather Underground
Select the location of interest below. Wairoa is the default. Please have patience, this Data is slow to load in.
Northern Hawkes Bay Historical Data
Daily Summary for March 1, 2017 Units:  English    Metric   Both
« Previous Day
Next Day »
Daily Weekly Monthly Yearly Custom
  High: Low: Average:
Temperature: 80.8 °F 54.1 °F 64.4 °F
Dew Point: 63.3 °F 53.2 °F 58.5 °F
Humidity: 99% 46% 83%
Wind Speed: 6.9mph 0mph 1.8mph
Wind Gust: 10.7mph - -
Wind- - West
Pressure: 30.5 in 30.3 in -
Precipitation: 0 in    
Historical Graphs
 
 
Tabular Data for March 1, 2017
Time Temperature Dew Point Pressure Wind Wind Speed Wind Gust Humidity Rainfall Rate (Hourly) solar
00:02 59 °F 58.5 °F 30.5 in NNW 1.6 mph 3.1 mph 98% 0 in 0 W/m2
00:07 58.8 °F 58.6 °F 30.5 in Calm   3.1 mph 99% 0 in 0 W/m2
00:12 58.6 °F 58.5 °F 30.5 in Calm   3.1 mph 99% 0 in 0 W/m2
00:17 58.6 °F 58.5 °F 30.5 in Calm   3.1 mph 99% 0 in 0 W/m2
00:22 58.6 °F 58.5 °F 30.5 in Calm     99% 0 in 0 W/m2
00:27 58.5 °F 58.3 °F 30.5 in Calm   2.2 mph 99% 0 in 0 W/m2
00:32 58.5 °F 58.3 °F 30.5 in Calm   2.2 mph 99% 0 in 0 W/m2
00:38 58.5 °F 58.3 °F 30.5 in Calm     99% 0 in 0 W/m2
00:43 58.5 °F 58.3 °F 30.5 in Calm     99% 0 in 0 W/m2
00:48 58.6 °F 58.5 °F 30.5 in Calm     99% 0 in 0 W/m2
00:53 58.5 °F 58.3 °F 30.5 in Calm     99% 0 in 0 W/m2
00:58 58.5 °F 58.3 °F 30.5 in Calm   1.6 mph 99% 0 in 0 W/m2
01:03 58.3 °F 57.9 °F 30.5 in Calm   1.6 mph 99% 0 in 0 W/m2
01:08 58.3 °F 57.9 °F 30.5 in Calm     99% 0 in 0 W/m2
01:13 58.3 °F 57.9 °F 30.5 in Calm     99% 0 in 0 W/m2
01:18 58.3 °F 57.9 °F 30.5 in Calm     99% 0 in 0 W/m2
01:23 58.3 °F 57.9 °F 30.5 in Calm     99% 0 in 0 W/m2
01:28 58.3 °F 57.9 °F 30.5 in Calm     99% 0 in 0 W/m2
01:33 58.1 °F 57.7 °F 30.5 in Calm     99% 0 in 0 W/m2
01:38 57.9 °F 57.7 °F 30.5 in Calm     99% 0 in 0 W/m2
01:43 57.7 °F 57.6 °F 30.5 in Calm     99% 0 in 0 W/m2
01:48 57.7 °F 57.6 °F 30.5 in NW 1.6 mph 3.1 mph 99% 0 in 0 W/m2
01:53 57.7 °F 57.6 °F 30.5 in Calm   3.1 mph 99% 0 in 0 W/m2
01:58 57.6 °F 57.4 °F 30.5 in Calm   3.1 mph 99% 0 in 0 W/m2
02:03 57.6 °F 57.4 °F 30.5 in Calm   1.6 mph 99% 0 in 0 W/m2
02:08 57.4 °F 57 °F 30.5 in NW 1.6 mph 2.2 mph 99% 0 in 0 W/m2
02:13 57.4 °F 57 °F 30.5 in NW 0.7 mph 3.1 mph 99% 0 in 0 W/m2
02:18 57.2 °F 56.8 °F 30.5 in Calm   3.1 mph 99% 0 in 0 W/m2
02:23 57.2 °F 56.8 °F 30.5 in NNW 1.6 mph 3.1 mph 99% 0 in 0 W/m2
02:28 57.2 °F 56.8 °F 30.5 in Calm   3.1 mph 99% 0 in 0 W/m2
02:33 57 °F 56.8 °F 30.5 in Calm   3.1 mph 99% 0 in 0 W/m2
02:38 57 °F 56.8 °F 30.5 in Calm     99% 0 in 0 W/m2
02:43 56.8 °F 56.7 °F 30.5 in Calm     99% 0 in 0 W/m2
02:48 56.8 °F 56.7 °F 30.5 in Calm     99% 0 in 0 W/m2
02:53 56.8 °F 56.7 °F 30.5 in Calm   3.1 mph 99% 0 in 0 W/m2
02:58 56.7 °F 56.5 °F 30.5 in Calm   3.1 mph 99% 0 in 0 W/m2
03:03 56.5 °F 56.1 °F 30.5 in North 1.6 mph 2.2 mph 99% 0 in 0 W/m2
03:08 56.5 °F 56.1 °F 30.5 in Calm   3.1 mph 99% 0 in 0 W/m2
03:13 56.5 °F 56.1 °F 30.5 in NNW 1.6 mph 3.1 mph 99% 0 in 0 W/m2
03:18 56.5 °F 56.1 °F 30.5 in NNW 1.6 mph 3.1 mph 99% 0 in 0 W/m2
03:23 56.3 °F 55.9 °F 30.5 in NNW 1.6 mph 3.1 mph 99% 0 in 0 W/m2
03:27 56.3 °F 55.9 °F 30.5 in NNW 1.6 mph 3.1 mph 99% 0 in 0 W/m2
03:33 56.1 °F 55.9 °F 30.5 in NNW 1.6 mph 3.1 mph 99% 0 in 0 W/m2
03:38 55.9 °F 55.8 °F 30.5 in NNW 0.7 mph 3.1 mph 99% 0 in 0 W/m2
03:43 55.8 °F 55.6 °F 30.5 in Calm   3.1 mph 99% 0 in 0 W/m2
03:48 55.8 °F 55.6 °F 30.5 in Calm   2.2 mph 99% 0 in 0 W/m2
03:53 55.6 °F 55.2 °F 30.5 in NW 2.2 mph 3.8 mph 99% 0 in 0 W/m2
03:58 55.6 °F 55.2 °F 30.5 in NW 1.6 mph 3.8 mph 99% 0 in 0 W/m2
04:03 55.4 °F 55 °F 30.5 in NW 1.6 mph 3.8 mph 99% 0 in 0 W/m2
04:08 55.4 °F 55 °F 30.5 in NW 2.2 mph 3.8 mph 99% 0 in 0 W/m2
04:13 55.2 °F 54.3 °F 30.5 in NW 2.2 mph 4.5 mph 97% 0 in 0 W/m2
04:18 55 °F 54.1 °F 30.5 in NW 3.1 mph 6 mph 97% 0 in 0 W/m2
04:22 54.7 °F 54 °F 30.5 in NW 3.8 mph 6 mph 97% 0 in 0 W/m2
04:28 54.7 °F 54 °F 30.5 in NNW 2.2 mph 6 mph 97% 0 in 0 W/m2
04:33 54.5 °F 53.8 °F 30.5 in NNW 2.2 mph 6 mph 97% 0 in 0 W/m2
04:38 54.5 °F 53.8 °F 30.5 in NNW 2.2 mph 5.4 mph 97% 0 in 0 W/m2
04:43 54.3 °F 53.4 °F 30.5 in NNW 3.1 mph 5.4 mph 97% 0 in 0 W/m2
04:47 54.3 °F 53.4 °F 30.5 in NNW 1.6 mph 5.4 mph 97% 0 in 0 W/m2
04:52 54.3 °F 53.4 °F 30.5 in NNW 2.2 mph 5.4 mph 97% 0 in 0 W/m2
04:58 54.1 °F 53.2 °F 30.5 in NNW 2.2 mph 4.5 mph 97% 0 in 0 W/m2
05:03 54.1 °F 53.2 °F 30.5 in NNW 3.1 mph 5.4 mph 97% 0 in 0 W/m2
05:07 54.1 °F 53.2 °F 30.5 in NNW 3.1 mph 5.4 mph 97% 0 in 0 W/m2
05:12 54.1 °F 53.2 °F 30.5 in NNW 3.8 mph 5.4 mph 97% 0 in 0 W/m2
05:18 54.3 °F 53.4 °F 30.5 in NNW 2.2 mph 5.4 mph 97% 0 in 0 W/m2
05:22 54.5 °F 53.8 °F 30.5 in North 3.1 mph 5.4 mph 97% 0 in 0 W/m2
05:28 54.7 °F 54 °F 30.4 in NNW 4.5 mph 6.9 mph 97% 0 in 0 W/m2
05:32 54.7 °F 54 °F 30.4 in NNW 3.8 mph 6.9 mph 97% 0 in 0 W/m2
05:38 54.7 °F 54 °F 30.4 in NNW 4.5 mph 6.9 mph 97% 0 in 0 W/m2
05:43 54.7 °F 54 °F 30.4 in NNW 4.5 mph 6.9 mph 97% 0 in 0 W/m2
05:47 54.7 °F 54 °F 30.4 in NNW 3.8 mph 6.9 mph 97% 0 in 0 W/m2
05:53 54.7 °F 54 °F 30.4 in NNW 5.4 mph 6.9 mph 97% 0 in 0 W/m2
05:58 54.7 °F 54 °F 30.5 in NNW 3.1 mph 6.9 mph 97% 0 in 0 W/m2
06:03 54.7 °F 54 °F 30.5 in NNW 3.8 mph 7.6 mph 97% 0 in 0 W/m2
06:07 54.7 °F 54 °F 30.4 in NNW 5.4 mph 7.6 mph 97% 0 in 0 W/m2
06:12 54.7 °F 54 °F 30.5 in NNW 0.7 mph 6.9 mph 97% 0 in 0 W/m2
06:18 54.7 °F 54 °F 30.4 in NNW 3.1 mph 6.9 mph 97% 0 in 0 W/m2
06:22 54.7 °F 54 °F 30.4 in NNW 2.2 mph 6.9 mph 97% 0 in 0 W/m2
06:28 54.7 °F 54 °F 30.5 in NNW 1.6 mph 6.9 mph 97% 0 in 0 W/m2
06:33 54.7 °F 54 °F 30.4 in NNW 3.1 mph 4.5 mph 97% 0 in 0 W/m2
06:37 54.7 °F 54 °F 30.5 in NNW 3.1 mph 6.9 mph 97% 0 in 0 W/m2
06:42 54.7 °F 54 °F 30.5 in NNW 3.1 mph 8.3 mph 97% 0 in 0 W/m2
06:47 54.9 °F 54 °F 30.5 in North 3.1 mph 8.3 mph 97% 0 in 0 W/m2
06:52 54.7 °F 54 °F 30.5 in North 4.5 mph 7.6 mph 97% 0 in 1 W/m2
06:58 54.7 °F 54 °F 30.5 in NNW 6.9 mph 9.2 mph 97% 0 in 4 W/m2
07:02 54.7 °F 54 °F 30.5 in NNW 3.1 mph 9.2 mph 97% 0 in 5 W/m2
07:08 54.7 °F 54 °F 30.5 in North 5.4 mph 8.3 mph 97% 0 in 10 W/m2
07:13 54.7 °F 54 °F 30.5 in North 6 mph 8.3 mph 97% 0 in 13 W/m2
07:17 54.9 °F 54 °F 30.5 in NNW 4.5 mph 8.3 mph 97% 0 in 19 W/m2
07:22 55 °F 54.1 °F 30.4 in NNW 3.1 mph 7.6 mph 97% 0 in 24 W/m2
07:28 55.2 °F 54.3 °F 30.5 in North 2.2 mph 7.6 mph 97% 0 in 32 W/m2
07:32 55.2 °F 54.3 °F 30.4 in NNW 3.8 mph 6.9 mph 97% 0 in 38 W/m2
07:38 55.2 °F 54.3 °F 30.4 in North 3.1 mph 6.9 mph 97% 0 in 41 W/m2
07:43 55.2 °F 54.3 °F 30.4 in North 5.4 mph 7.6 mph 97% 0 in 35 W/m2
07:47 54.9 °F 54 °F 30.4 in NNW 5.4 mph 7.6 mph 97% 0 in 39 W/m2
07:52 54.9 °F 54 °F 30.4 in NNW 5.4 mph 8.3 mph 97% 0 in 44 W/m2
07:57 55 °F 54.1 °F 30.4 in North 5.4 mph 8.3 mph 97% 0 in 64 W/m2
08:02 55.2 °F 54.3 °F 30.5 in North 3.8 mph 7.6 mph 97% 0 in 68 W/m2
08:08 55.4 °F 55 °F 30.4 in NNW 3.1 mph 7.6 mph 99% 0 in 79 W/m2
08:12 55.8 °F 55.6 °F 30.5 in NNW 5.4 mph 6.9 mph 99% 0 in 84 W/m2
08:17 55.6 °F 55.2 °F 30.5 in NNW 2.2 mph 8.3 mph 99% 0 in 98 W/m2
08:22 56.1 °F 55.9 °F 30.5 in NNW 3.8 mph 8.3 mph 99% 0 in 105 W/m2
08:28 56.1 °F 55.9 °F 30.5 in NW 4.5 mph 6.9 mph 99% 0 in 95 W/m2
08:32 55.9 °F 55.8 °F 30.4 in NNW 2.2 mph 6.9 mph 99% 0 in 105 W/m2
08:37 56.1 °F 55.9 °F 30.4 in NNW 5.4 mph 7.6 mph 99% 0 in 122 W/m2
08:42 56.1 °F 55.9 °F 30.4 in NW 5.4 mph 8.3 mph 99% 0 in 101 W/m2
08:47 55.9 °F 55.8 °F 30.4 in NNW 3.1 mph 8.3 mph 99% 0 in 121 W/m2
08:52 56.1 °F 55.9 °F 30.4 in NW 4.5 mph 8.3 mph 99% 0 in 132 W/m2
08:57 56.3 °F 55.9 °F 30.4 in NNW 4.5 mph 8.3 mph 99% 0 in 132 W/m2
09:02 56.7 °F 56.5 °F 30.5 in NNW 4.5 mph 7.6 mph 99% 0 in 138 W/m2
09:07 56.8 °F 56.7 °F 30.4 in NNW 5.4 mph 7.6 mph 99% 0 in 194 W/m2
09:12 57.4 °F 57 °F 30.5 in NNW 4.5 mph 8.3 mph 99% 0.01 in 209 W/m2
09:17 57.2 °F 56.8 °F 30.5 in North 3.8 mph 8.3 mph 99% 0.01 in 265 W/m2
09:22 58.3 °F 57.9 °F 30.4 in North 3.1 mph 8.3 mph 99% 0.01 in 251 W/m2
09:27 58.1 °F 57.7 °F 30.4 in NNW 3.8 mph 7.6 mph 99% 0.01 in 236 W/m2
09:32 58.3 °F 57.9 °F 30.4 in NNW 4.5 mph 7.6 mph 99% 0.01 in 298 W/m2
09:37 58.6 °F 58.5 °F 30.5 in NNW 4.5 mph 6.9 mph 99% 0.01 in 205 W/m2
09:42 59 °F 58.6 °F 30.5 in NNW 2.2 mph 6.9 mph 99% 0.01 in 313 W/m2
09:47 59.4 °F 59.2 °F 30.4 in NNW 6 mph 7.6 mph 99% 0.01 in 344 W/m2
09:52 59.5 °F 59.4 °F 30.4 in NNW 5.4 mph 7.6 mph 99% 0.01 in 304 W/m2
09:57 59.7 °F 59.5 °F 30.5 in NNW 6.9 mph 7.6 mph 99% 0.01 in 379 W/m2
10:02 60.3 °F 60.1 °F 30.5 in NNW 3.1 mph 7.6 mph 99% 0.01 in 391 W/m2
10:07 61 °F 60.4 °F 30.5 in NW 3.8 mph 7.6 mph 98% 0.01 in 408 W/m2
10:12 62.1 °F 61.5 °F 30.5 in NW 3.1 mph 7.6 mph 98% 0 in 433 W/m2
10:17 63.1 °F 62.2 °F 30.5 in NW 3.1 mph 6.9 mph 97% 0 in 459 W/m2
10:22 63.9 °F 63 °F 30.5 in NW 2.2 mph 6.9 mph 97% 0 in 470 W/m2
10:27 64.9 °F 63 °F 30.5 in NNW 3.8 mph 6.9 mph 93% 0 in 191 W/m2
10:32 65.7 °F 61.7 °F 30.4 in NNW 0.7 mph 6 mph 87% 0 in 438 W/m2
10:37 66.6 °F 61.3 °F 30.5 in NNW 1.6 mph 6 mph 83% 0 in 81 W/m2
10:42 67.1 °F 60.1 °F 30.4 in NNW 1.6 mph 6 mph 78% 0 in 501 W/m2
10:47 68.2 °F 60.4 °F 30.4 in Calm   6 mph 76% 0 in 526 W/m2
11:08 71.8 °F 59.4 °F 30.4 in WSW 2.2 mph 3.8 mph 65% 0 in 603 W/m2
11:13 72.3 °F 59.5 °F 30.4 in Calm   3.8 mph 64% 0 in 631 W/m2
11:18 73 °F 59.7 °F 30.4 in SSW 1.6 mph 3.8 mph 63% 0 in 646 W/m2
11:23 73.4 °F 59.5 °F 30.4 in Calm   3.8 mph 62% 0 in 656 W/m2
11:28 74.1 °F 58.8 °F 30.4 in East 2.2 mph 3.8 mph 59% 0 in 238 W/m2
11:33 73.2 °F 59 °F 30.4 in Calm   5.4 mph 61% 0 in 684 W/m2
11:38 74.7 °F 58.8 °F 30.4 in NNE 2.2 mph 5.4 mph 58% 0 in 714 W/m2
11:43 73.9 °F 60.1 °F 30.4 in SSE 3.1 mph 6.9 mph 62% 0 in 725 W/m2
11:48 72.7 °F 59.4 °F 30.4 in SE 3.8 mph 7.6 mph 63% 0 in 737 W/m2
11:53 72 °F 59.2 °F 30.4 in SE 3.8 mph 7.6 mph 64% 0 in 747 W/m2
11:58 71.4 °F 59.5 °F 30.4 in SE 3.1 mph 8.3 mph 66% 0 in 755 W/m2
12:03 71.8 °F 59.4 °F 30.4 in SSE 3.1 mph 8.3 mph 65% 0 in 770 W/m2
12:08 71.8 °F 59 °F 30.4 in SE 3.8 mph 7.6 mph 64% 0 in 783 W/m2
12:13 71.8 °F 59.4 °F 30.4 in SE 3.1 mph 7.6 mph 65% 0 in 799 W/m2
12:18 71.4 °F 59.9 °F 30.4 in SSE 4.5 mph 8.3 mph 67% 0 in 813 W/m2
12:23 71.6 °F 60.1 °F 30.4 in SSE 1.6 mph 8.3 mph 67% 0 in 825 W/m2
12:28 72.3 °F 59.9 °F 30.4 in SSE 1.6 mph 6.9 mph 65% 0 in 840 W/m2
12:33 72.1 °F 59.7 °F 30.4 in SE 3.8 mph 6.9 mph 65% 0 in 855 W/m2
12:38 72 °F 60.1 °F 30.4 in SSE 3.1 mph 8.3 mph 66% 0 in 870 W/m2
12:43 71.6 °F 59.7 °F 30.4 in SE 3.1 mph 8.3 mph 66% 0 in 882 W/m2
12:48 71.6 °F 60.4 °F 30.4 in SSE 5.4 mph 8.3 mph 68% 0 in 893 W/m2
12:53 71.4 °F 60.6 °F 30.4 in SSE 2.2 mph 8.3 mph 69% 0 in 898 W/m2
12:58 72.1 °F 60.6 °F 30.4 in SE 3.8 mph 8.3 mph 67% 0 in 911 W/m2
13:03 71.8 °F 60.6 °F 30.4 in SSE 3.1 mph 7.6 mph 68% 0 in 912 W/m2
13:08 71.8 °F 60.6 °F 30.4 in SSE 6 mph 8.3 mph 68% 0 in 919 W/m2
13:13 71.8 °F 61.5 °F 30.4 in SE 5.4 mph 8.3 mph 70% 0 in 915 W/m2
13:18 72 °F 61.3 °F 30.4 in SSE 4.5 mph 8.3 mph 69% 0 in 918 W/m2
13:23 72.1 °F 61.9 °F 30.4 in SSE 3.8 mph 7.6 mph 70% 0 in 917 W/m2
13:28 71.8 °F 61.5 °F 30.4 in SSE 1.6 mph 9.2 mph 70% 0 in 913 W/m2
13:33 72.5 °F 62.6 °F 30.4 in South 3.1 mph 9.2 mph 71% 0 in 917 W/m2
13:38 73.2 °F 62.4 °F 30.4 in SE 3.8 mph 8.3 mph 69% 0 in 914 W/m2
13:43 72.5 °F 61.9 °F 30.4 in SE 3.8 mph 9.8 mph 69% 0 in 906 W/m2
13:48 72.5 °F 62.6 °F 30.4 in SE 5.4 mph 9.8 mph 71% 0 in 902 W/m2
13:53 72.7 °F 62.1 °F 30.4 in SE 3.8 mph 9.2 mph 69% 0 in 896 W/m2
13:58 72.5 °F 61.9 °F 30.4 in SE 6 mph 8.3 mph 69% 0 in 888 W/m2
14:03 72.9 °F 62.4 °F 30.4 in SE 3.1 mph 8.3 mph 70% 0 in 882 W/m2
14:08 72.7 °F 62.8 °F 30.4 in SSE 4.5 mph 8.3 mph 71% 0 in 874 W/m2
14:13 72.5 °F 62.2 °F 30.4 in SSE 6 mph 9.2 mph 70% 0 in 863 W/m2
14:18 72.5 °F 62.6 °F 30.4 in SSE 3.1 mph 9.2 mph 71% 0 in 851 W/m2
14:23 73.6 °F 63.1 °F 30.4 in SE 4.5 mph 9.2 mph 70% 0 in 779 W/m2
14:28 73.4 °F 62.2 °F 30.4 in Calm   9.2 mph 68% 0 in 833 W/m2
14:33 74.3 °F 63.1 °F 30.4 in SSE 3.8 mph 9.2 mph 68% 0 in 642 W/m2
14:38 74.5 °F 63.3 °F 30.4 in SE 6 mph 8.3 mph 68% 0 in 577 W/m2
14:43 74.1 °F 62.4 °F 30.4 in ESE 1.6 mph 9.2 mph 67% 0 in 797 W/m2
14:48 74.1 °F 63 °F 30.4 in SSE 3.1 mph 9.2 mph 68% 0 in 631 W/m2
14:53 74.7 °F 62.6 °F 30.4 in SSE 4.5 mph 8.3 mph 66% 0 in 756 W/m2
14:58 73.9 °F 61.9 °F 30.4 in SE 0.7 mph 10.7 mph 66% 0 in 561 W/m2
15:03 75.4 °F 62.8 °F 30.4 in SE 3.1 mph 10.7 mph 65% 0 in 739 W/m2
15:08 75.7 °F 62.8 °F 30.4 in East 0.7 mph 8.3 mph 64% 0 in 725 W/m2
15:13 75.6 °F 62.1 °F 30.4 in SSE 3.8 mph 9.2 mph 63% 0 in 712 W/m2
15:18 75.6 °F 62.6 °F 30.4 in SSE 2.2 mph 9.2 mph 64% 0 in 691 W/m2
15:23 75.4 °F 61 °F 30.4 in SSE 4.5 mph 9.2 mph 61% 0 in 680 W/m2
15:28 76.3 °F 62.2 °F 30.4 in Calm   6.9 mph 62% 0 in 647 W/m2
15:33 77 °F 61.5 °F 30.4 in SE 3.1 mph 7.6 mph 59% 0 in 622 W/m2
15:38 76.8 °F 61 °F 30.4 in SSE 3.1 mph 7.6 mph 58% 0 in 506 W/m2
15:43 76.6 °F 62.2 °F 30.4 in SE 0.7 mph 7.6 mph 61% 0 in 622 W/m2
15:48 76.6 °F 62.8 °F 30.4 in Calm   9.2 mph 62% 0 in 606 W/m2
15:53 76.6 °F 61.3 °F 30.4 in Calm   9.2 mph 59% 0 in 594 W/m2
15:58 77.4 °F 61 °F 30.4 in SE 1.6 mph 6 mph 57% 0 in 580 W/m2
16:03 77.4 °F 60.1 °F 30.4 in SE 0.7 mph 8.3 mph 55% 0 in 565 W/m2
16:08 77.2 °F 59.7 °F 30.4 in Calm   9.8 mph 55% 0 in 535 W/m2
16:13 77.4 °F 60.1 °F 30.3 in Calm   9.8 mph 55% 0 in 203 W/m2
16:18 78.1 °F 59.5 °F 30.3 in Calm   3.1 mph 53% 0 in 515 W/m2
16:23 78.6 °F 59 °F 30.3 in Calm   3.1 mph 51% 0 in 508 W/m2
16:28 77.9 °F 58.5 °F 30.3 in Calm   2.2 mph 51% 0 in 499 W/m2
16:33 78.4 °F 58.8 °F 30.3 in Calm   0.7 mph 51% 0 in 485 W/m2
16:38 79 °F 58.3 °F 30.3 in Calm     49% 0 in 472 W/m2
16:43 79.3 °F 57.9 °F 30.3 in Calm     48% 0 in 459 W/m2
16:48 79.9 °F 57.4 °F 30.3 in Calm   0.7 mph 46% 0 in 430 W/m2
16:53 79.7 °F 58.3 °F 30.3 in Calm   0.7 mph 48% 0 in 430 W/m2
16:58 79.7 °F 57.7 °F 30.3 in Calm     47% 0 in 416 W/m2
17:03 80.2 °F 58.3 °F 30.3 in Calm     47% 0 in 403 W/m2
17:08 80.1 °F 58.6 °F 30.3 in Calm     48% 0 in 388 W/m2
17:13 79.9 °F 59.5 °F 30.3 in Calm     50% 0 in 371 W/m2
17:31 79.5 °F 59.4 °F 30.3 in Calm   0.7 mph 50% 0 in 316 W/m2
17:36 80.2 °F 58.8 °F 30.3 in Calm     48% 0 in 302 W/m2
17:41 80.4 °F 59 °F 30.3 in Calm     48% 0 in 287 W/m2
17:46 80.8 °F 58.1 °F 30.3 in Calm     46% 0 in 272 W/m2
17:51 80.1 °F 57.6 °F 30.3 in Calm     46% 0 in 257 W/m2
17:56 79.7 °F 57.7 °F 30.3 in Calm     47% 0 in 242 W/m2
18:01 79.7 °F 59.5 °F 30.3 in Calm     50% 0 in 225 W/m2
18:06 80.1 °F 61 °F 30.3 in Calm   0.7 mph 52% 0 in 210 W/m2
18:11 79.7 °F 60.6 °F 30.3 in Calm   0.7 mph 52% 0 in 196 W/m2
18:16 79.5 °F 61 °F 30.3 in Calm     53% 0 in 162 W/m2
18:21 78.4 °F 61 °F 30.3 in Calm     55% 0 in 52 W/m2
18:26 77 °F 61.2 °F 30.3 in Calm     58% 0 in 63 W/m2
18:31 75.9 °F 61.5 °F 30.3 in Calm     61% 0 in 75 W/m2
18:36 75 °F 62.1 °F 30.3 in Calm     64% 0 in 68 W/m2
18:41 75.7 °F 62.8 °F 30.3 in Calm     64% 0 in 104 W/m2
18:46 75.9 °F 62.1 °F 30.3 in Calm     62% 0 in 41 W/m2
18:51 74.7 °F 62.1 °F 30.3 in Calm     65% 0 in 42 W/m2
18:56 74.3 °F 62.2 °F 30.3 in Calm     66% 0 in 62 W/m2
19:01 74.7 °F 62.1 °F 30.3 in Calm     65% 0 in 43 W/m2
19:06 75.2 °F 62.8 °F 30.3 in Calm     65% 0 in 44 W/m2
19:11 75.7 °F 62.8 °F 30.3 in Calm     64% 0 in 32 W/m2
19:30 71.4 °F 62.1 °F 30.3 in Calm     72% 0 in 17 W/m2
19:35 70.5 °F 61.2 °F 30.3 in Calm     72% 0 in 12 W/m2
19:40 70 °F 60.6 °F 30.3 in Calm     72% 0 in 10 W/m2
19:45 69.3 °F 60.3 °F 30.3 in Calm     73% 0 in 6 W/m2
19:50 68.7 °F 60.1 °F 30.3 in Calm     74% 0 in 4 W/m2
19:55 68.4 °F 60.4 °F 30.3 in Calm     76% 0 in 2 W/m2
20:00 67.8 °F 60.6 °F 30.3 in Calm     78% 0 in 0 W/m2
20:05 66.9 °F 59.5 °F 30.3 in Calm     77% 0 in 0 W/m2
20:10 66.9 °F 60.3 °F 30.3 in Calm     79% 0 in 0 W/m2
20:15 66.6 °F 60.3 °F 30.3 in Calm     80% 0 in 0 W/m2
20:20 66.4 °F 61.2 °F 30.3 in Calm     83% 0 in 0 W/m2
20:25 66 °F 61.3 °F 30.3 in Calm     85% 0 in 0 W/m2
20:30 65.7 °F 61.2 °F 30.3 in Calm     85% 0 in 0 W/m2
20:35 65.3 °F 61 °F 30.3 in Calm     86% 0 in 0 W/m2
20:40 65.1 °F 61.2 °F 30.3 in Calm     87% 0 in 0 W/m2
20:45 64.9 °F 61.3 °F 30.3 in Calm     88% 0 in 0 W/m2
20:50 64.8 °F 61.2 °F 30.3 in Calm     88% 0 in 0 W/m2
20:55 64.4 °F 61.2 °F 30.3 in Calm     89% 0 in 0 W/m2
21:00 64.2 °F 61 °F 30.3 in Calm     89% 0 in 0 W/m2
21:05 64 °F 60.8 °F 30.3 in Calm     89% 0 in 0 W/m2
21:10 64 °F 60.8 °F 30.3 in Calm     89% 0 in 0 W/m2
21:15 63.9 °F 60.6 °F 30.3 in Calm     89% 0 in 0 W/m2
21:20 63.7 °F 60.1 °F 30.3 in NW 2.2 mph 4.5 mph 88% 0 in 0 W/m2
21:25 63.7 °F 60.4 °F 30.3 in NW 1.6 mph 4.5 mph 89% 0 in 0 W/m2
21:30 63.7 °F 60.1 °F 30.3 in Calm   3.8 mph 88% 0 in 0 W/m2
21:35 63.3 °F 59.4 °F 30.3 in Calm   2.2 mph 87% 0 in 0 W/m2
21:40 63 °F 59 °F 30.3 in Calm   2.2 mph 87% 0 in 0 W/m2
21:45 62.6 °F 58.6 °F 30.3 in NW 0.7 mph 2.2 mph 87% 0 in 0 W/m2
21:50 62.4 °F 58.8 °F 30.3 in NNW 2.2 mph 3.1 mph 88% 0 in 0 W/m2
21:55 62.2 °F 59 °F 30.3 in NNW 1.6 mph 3.8 mph 89% 0 in 0 W/m2
22:00 62.2 °F 59 °F 30.3 in NNW 1.6 mph 3.8 mph 89% 0 in 0 W/m2
22:05 62.1 °F 58.8 °F 30.3 in Calm   3.1 mph 89% 0 in 0 W/m2
22:10 61.9 °F 58.6 °F 30.3 in Calm   2.2 mph 89% 0 in 0 W/m2
22:15 61.7 °F 58.5 °F 30.3 in Calm     89% 0 in 0 W/m2
22:20 61.7 °F 58.8 °F 30.3 in Calm     90% 0 in 0 W/m2
22:25 61.7 °F 58.8 °F 30.3 in North 2.2 mph 3.1 mph 90% 0 in 0 W/m2
22:30 61.7 °F 58.8 °F 30.3 in North 0.7 mph 3.1 mph 90% 0 in 0 W/m2
22:35 61.5 °F 58.6 °F 30.3 in North 3.1 mph 3.8 mph 90% 0 in 0 W/m2
22:40 61.5 °F 58.6 °F 30.3 in North 2.2 mph 4.5 mph 90% 0 in 0 W/m2
22:45 61.5 °F 58.6 °F 30.3 in Calm   4.5 mph 90% 0 in 0 W/m2
22:50 61.5 °F 58.6 °F 30.3 in Calm   3.8 mph 90% 0 in 0 W/m2
22:55 61.3 °F 58.5 °F 30.3 in Calm   3.1 mph 90% 0 in 0 W/m2
23:13 61 °F 58.6 °F 30.3 in Calm   0.7 mph 92% 0 in 0 W/m2
23:18 60.8 °F 58.5 °F 30.3 in Calm   0.7 mph 92% 0 in 0 W/m2
23:23 60.8 °F 58.5 °F 30.3 in Calm     92% 0 in 0 W/m2
23:28 60.8 °F 58.5 °F 30.3 in Calm     92% 0 in 0 W/m2
23:33 60.6 °F 58.6 °F 30.3 in Calm     93% 0 in 0 W/m2
23:38 60.6 °F 58.6 °F 30.3 in Calm     93% 0 in 0 W/m2
23:43 60.4 °F 58.5 °F 30.3 in Calm     93% 0 in 0 W/m2
23:48 60.4 °F 58.5 °F 30.3 in Calm     93% 0 in 0 W/m2
23:53 60.3 °F 58.3 °F 30.3 in Calm     93% 0 in 0 W/m2
23:58 60.1 °F 58.1 °F 30.3 in Calm     93% 0 in 0 W/m2
Northern Hawkes Bay. New Zealand Historic Data
Compliments of Weather Underground - 2.25 mb